createdAt,value
2022-12-20T00:01:30.169Z,40.83
2022-12-20T00:03:58.895Z,44.45
2022-12-20T00:06:26.254Z,43.22
2022-12-20T00:08:55.234Z,40.80
2022-12-20T00:11:23.093Z,37.50
2022-12-20T00:13:49.765Z,44.78
2022-12-20T00:16:19.768Z,43.40
2022-12-20T00:18:46.717Z,40.30
2022-12-20T00:21:14.706Z,40.45
2022-12-20T00:23:42.024Z,45.10
2022-12-20T00:26:19.819Z,37.25
2022-12-20T00:28:47.138Z,39.38
2022-12-20T00:31:16.373Z,36.17
2022-12-20T00:33:47.038Z,37.90
2022-12-20T00:36:14.822Z,41.65
2022-12-20T00:38:41.737Z,38.55
2022-12-20T00:41:11.190Z,42.20
2022-12-20T00:43:39.845Z,43.53
2022-12-20T00:46:09.125Z,36.90
2022-12-20T00:48:37.065Z,41.25
2022-12-20T00:51:08.759Z,44.20
2022-12-20T00:53:36.556Z,43.40
2022-12-20T00:56:04.512Z,40.05
2022-12-20T00:58:33.681Z,34.53
2022-12-20T01:01:00.612Z,39.90
2022-12-20T01:03:27.899Z,34.80
2022-12-20T01:06:00.591Z,41.55
2022-12-20T01:08:29.259Z,40.80
2022-12-20T01:11:05.115Z,42.28
2022-12-20T01:13:33.094Z,36.13
2022-12-20T01:16:17.661Z,39.63
2022-12-20T01:18:44.789Z,36.08
2022-12-20T01:21:14.151Z,37.92
2022-12-20T01:23:41.429Z,43.20
2022-12-20T01:26:11.860Z,40.20
2022-12-20T01:28:40.928Z,41.33
2022-12-20T01:31:09.661Z,41.92
2022-12-20T01:33:36.854Z,40.38
2022-12-20T01:36:09.102Z,38.70
2022-12-20T01:38:35.792Z,38.17
2022-12-20T01:41:03.912Z,40.00
2022-12-20T01:43:47.464Z,42.95
2022-12-20T01:46:14.340Z,42.63
2022-12-20T01:48:43.897Z,37.85
2022-12-20T01:51:11.051Z,39.67
2022-12-20T01:53:40.252Z,39.20
2022-12-20T01:56:08.602Z,40.83
2022-12-20T01:58:38.944Z,44.47
2022-12-20T02:01:05.820Z,41.70
2022-12-20T02:03:32.752Z,36.58
2022-12-20T02:06:14.564Z,43.83
2022-12-20T02:08:41.405Z,39.67
2022-12-20T02:11:29.449Z,40.83
2022-12-20T02:14:14.684Z,39.40
2022-12-20T02:17:22.384Z,44.58
2022-12-20T02:19:58.077Z,43.63
2022-12-20T02:22:45.153Z,40.25
2022-12-20T02:25:36.687Z,42.45
2022-12-20T02:28:28.029Z,40.40
2022-12-20T02:30:57.955Z,41.78
2022-12-20T02:33:28.416Z,40.30
2022-12-20T02:35:55.087Z,44.70
2022-12-20T02:38:37.058Z,35.50
2022-12-20T02:41:20.637Z,42.08
2022-12-20T02:44:13.993Z,36.70
2022-12-20T02:46:41.319Z,42.50
2022-12-20T02:49:17.067Z,36.95
2022-12-20T02:51:51.669Z,37.90
2022-12-20T02:54:19.539Z,41.03
2022-12-20T02:56:52.927Z,41.67
2022-12-20T02:59:24.805Z,41.78
2022-12-20T03:01:54.701Z,39.83
2022-12-20T03:04:27.241Z,39.95
2022-12-20T03:06:56.992Z,40.38
2022-12-20T03:09:23.588Z,37.42
2022-12-20T03:11:51.045Z,43.15
2022-12-20T03:14:17.815Z,41.53
2022-12-20T03:16:44.604Z,36.95
2022-12-20T03:19:13.785Z,39.65
2022-12-20T03:21:40.871Z,41.78
2022-12-20T03:24:07.638Z,36.20
2022-12-20T03:26:34.428Z,40.70
2022-12-20T03:29:04.751Z,40.25
2022-12-20T03:31:31.696Z,37.10
2022-12-20T03:33:58.388Z,42.10
2022-12-20T03:36:25.607Z,43.75
2022-12-20T03:38:53.391Z,43.88
2022-12-20T03:41:22.269Z,38.50
2022-12-20T03:43:49.817Z,38.67
2022-12-20T03:46:16.943Z,39.75
2022-12-20T03:48:44.081Z,40.53
2022-12-20T03:51:10.876Z,39.03
2022-12-20T03:53:37.457Z,39.78
2022-12-20T03:56:04.359Z,41.58
2022-12-20T03:58:30.956Z,39.60
2022-12-20T04:00:58.081Z,39.47
2022-12-20T04:03:24.955Z,38.30
2022-12-20T04:05:51.899Z,38.85
2022-12-20T04:08:18.446Z,41.15
2022-12-20T04:11:03.599Z,39.33
2022-12-20T04:13:30.141Z,40.25
2022-12-20T04:16:00.297Z,36.58
2022-12-20T04:20:54.877Z,42.35
2022-12-20T04:23:21.632Z,39.67
2022-12-20T04:25:48.318Z,39.83
2022-12-20T04:28:14.874Z,40.60
2022-12-20T04:30:41.440Z,36.42
2022-12-20T04:33:07.991Z,40.40
2022-12-20T04:35:35.066Z,36.50
2022-12-20T04:38:01.863Z,42.53
2022-12-20T04:40:28.597Z,38.45
2022-12-20T04:42:55.259Z,38.30
2022-12-20T04:45:21.917Z,39.70
2022-12-20T04:47:48.567Z,37.45
2022-12-20T04:50:15.191Z,38.47
2022-12-20T04:53:00.359Z,41.42
2022-12-20T04:55:26.966Z,38.10
2022-12-20T04:58:08.060Z,39.70
2022-12-20T05:00:37.052Z,40.70
2022-12-20T05:03:04.021Z,38.60
2022-12-20T05:05:30.907Z,40.58
2022-12-20T05:07:57.851Z,38.28
2022-12-20T05:10:24.625Z,41.90
2022-12-20T05:12:51.407Z,36.38
2022-12-20T05:15:18.083Z,34.30
2022-12-20T05:17:44.793Z,36.92
2022-12-20T05:20:11.968Z,36.55
2022-12-20T05:22:57.151Z,37.83
2022-12-20T05:25:42.185Z,40.15
2022-12-20T05:28:08.732Z,39.90
2022-12-20T05:30:35.411Z,38.25
2022-12-20T05:33:02.050Z,43.40
2022-12-20T05:35:29.295Z,42.72
2022-12-20T05:37:56.228Z,39.90
2022-12-20T05:40:22.919Z,37.13
2022-12-20T05:42:50.209Z,37.10
2022-12-20T05:45:16.923Z,38.13
2022-12-20T05:47:46.692Z,42.42
2022-12-20T05:50:18.658Z,40.92
2022-12-20T05:52:45.915Z,43.33
2022-12-20T05:55:13.759Z,39.53
2022-12-20T05:57:40.784Z,40.53
2022-12-20T06:00:09.494Z,37.65
2022-12-20T06:02:39.149Z,42.35
2022-12-20T06:05:06.523Z,39.15
2022-12-20T06:07:38.825Z,42.03
2022-12-20T06:10:06.226Z,40.58
2022-12-20T06:12:38.724Z,40.67
2022-12-20T06:15:05.839Z,41.35
2022-12-20T06:17:32.577Z,44.85
2022-12-20T06:19:59.149Z,41.75
2022-12-20T06:22:26.306Z,37.88
2022-12-20T06:24:53.111Z,39.97
2022-12-20T06:27:21.565Z,44.85
2022-12-20T06:29:52.063Z,41.28
2022-12-20T06:32:18.947Z,42.47
2022-12-20T06:34:45.946Z,41.38
2022-12-20T06:37:12.993Z,40.70
2022-12-20T06:39:39.816Z,39.50
2022-12-20T06:42:07.017Z,42.28
2022-12-20T06:44:33.667Z,43.75
2022-12-20T06:47:00.410Z,42.28
2022-12-20T06:49:27.139Z,44.42
2022-12-20T06:51:53.788Z,42.92
2022-12-20T06:54:27.946Z,39.63
2022-12-20T06:56:54.463Z,38.33
2022-12-20T06:59:21.280Z,38.08
2022-12-20T07:01:48.067Z,37.67
2022-12-20T07:04:14.789Z,36.85
2022-12-20T07:06:41.303Z,39.55
2022-12-20T07:09:09.283Z,36.65
2022-12-20T07:11:37.964Z,40.42
2022-12-20T07:14:04.623Z,42.00
2022-12-20T07:16:32.577Z,37.25
2022-12-20T07:18:59.540Z,38.28
2022-12-20T07:21:26.235Z,37.95
2022-12-20T07:23:53.698Z,40.25
2022-12-20T07:26:20.675Z,39.83
2022-12-20T07:28:47.322Z,35.63
2022-12-20T07:31:14.103Z,36.90
2022-12-20T07:33:40.797Z,33.08
2022-12-20T07:36:14.238Z,39.97
2022-12-20T07:38:40.876Z,40.90
2022-12-20T07:41:16.791Z,38.28
2022-12-20T07:43:43.818Z,39.67
2022-12-20T07:46:14.065Z,37.65
2022-12-20T07:48:40.903Z,38.63
2022-12-20T07:51:12.039Z,36.88
2022-12-20T07:53:43.304Z,37.47
2022-12-20T07:56:12.686Z,41.13
2022-12-20T07:58:41.741Z,41.97
2022-12-20T08:01:10.267Z,36.55
2022-12-20T08:03:44.223Z,35.22
2022-12-20T08:06:11.081Z,38.17
2022-12-20T08:08:43.131Z,39.55
2022-12-20T08:11:11.171Z,38.08
2022-12-20T08:13:44.415Z,38.78
2022-12-20T08:16:13.087Z,36.83
2022-12-20T08:18:39.763Z,35.53
2022-12-20T08:21:06.344Z,38.88
2022-12-20T08:23:33.009Z,37.78
2022-12-20T08:26:03.040Z,37.72
2022-12-20T08:28:29.685Z,35.03
2022-12-20T08:31:09.281Z,36.42
2022-12-20T08:33:37.849Z,35.55
2022-12-20T08:36:07.495Z,35.70
2022-12-20T08:38:34.549Z,36.83
2022-12-20T08:41:10.925Z,38.10
2022-12-20T08:43:38.594Z,36.22
2022-12-20T08:46:08.352Z,38.08
2022-12-20T08:48:35.448Z,36.72
2022-12-20T08:51:04.942Z,32.88
2022-12-20T08:53:33.178Z,34.83
2022-12-20T08:56:12.533Z,37.88
2022-12-20T08:58:41.702Z,35.28
2022-12-20T09:01:13.695Z,31.00
2022-12-20T09:03:41.330Z,29.83
2022-12-20T09:06:13.547Z,34.20
2022-12-20T09:08:41.000Z,36.47
2022-12-20T09:11:13.873Z,33.58
2022-12-20T09:13:44.280Z,31.70
2022-12-20T09:16:13.965Z,35.40
2022-12-20T09:18:43.554Z,33.88
2022-12-20T09:21:11.832Z,34.72
2022-12-20T09:23:38.978Z,31.13
2022-12-20T09:26:10.404Z,30.88
2022-12-20T09:28:37.136Z,31.58
2022-12-20T09:31:06.659Z,30.27
2022-12-20T09:33:34.869Z,32.20
2022-12-20T09:36:02.029Z,31.35
2022-12-20T09:38:29.575Z,30.38
2022-12-20T09:41:02.992Z,30.58
2022-12-20T09:43:30.446Z,29.85
2022-12-20T09:46:00.229Z,31.95
2022-12-20T09:48:37.497Z,32.72
2022-12-20T09:51:10.207Z,31.42
2022-12-20T09:53:46.671Z,31.92
2022-12-20T09:56:25.294Z,31.25
2022-12-20T09:59:13.170Z,35.00
2022-12-20T10:01:44.554Z,33.60
2022-12-20T10:04:33.868Z,34.90
2022-12-20T10:07:16.472Z,33.95
2022-12-20T10:09:53.590Z,34.72
2022-12-20T10:12:26.081Z,31.98
2022-12-20T10:15:14.933Z,34.30
2022-12-20T10:18:06.570Z,33.17
2022-12-20T10:21:05.564Z,29.92
2022-12-20T10:24:18.084Z,35.97
2022-12-20T10:26:47.778Z,26.23
2022-12-20T10:29:14.307Z,27.25
2022-12-20T10:31:41.262Z,32.38
2022-12-20T10:34:08.019Z,33.28
2022-12-20T10:36:36.540Z,30.35
2022-12-20T10:39:08.773Z,34.47
2022-12-20T10:41:47.569Z,33.58
2022-12-20T10:44:25.908Z,38.70
2022-12-20T10:46:54.913Z,35.55
2022-12-20T10:49:30.713Z,31.20
2022-12-20T10:52:08.508Z,32.53
2022-12-20T10:54:40.413Z,30.48
2022-12-20T10:57:15.997Z,26.27
2022-12-20T10:59:48.150Z,33.72
2022-12-20T11:02:40.121Z,28.08
2022-12-20T11:05:10.941Z,32.67
2022-12-20T11:10:52.963Z,31.73
2022-12-20T11:13:28.310Z,30.80
2022-12-20T11:15:57.759Z,29.70
2022-12-20T11:18:40.587Z,29.53
2022-12-20T11:21:38.351Z,36.58
2022-12-20T11:24:40.279Z,28.17
2022-12-20T11:27:32.830Z,28.05
2022-12-20T11:30:29.308Z,26.45
2022-12-20T11:33:02.351Z,33.03
2022-12-20T11:35:47.373Z,27.02
2022-12-20T11:38:42.160Z,27.10
2022-12-20T11:41:29.751Z,25.27
2022-12-20T11:44:49.766Z,33.00
2022-12-20T11:47:39.363Z,28.48
2022-12-20T11:50:44.257Z,26.05
2022-12-20T11:53:34.070Z,29.05
2022-12-20T11:56:44.355Z,27.13
2022-12-20T11:59:27.709Z,27.70
2022-12-20T12:02:04.978Z,29.23
2022-12-20T12:04:42.998Z,28.15
2022-12-20T12:07:21.944Z,31.20
2022-12-20T12:10:05.512Z,34.13
2022-12-20T12:13:09.031Z,30.90
2022-12-20T12:15:54.110Z,29.38
2022-12-20T12:18:29.333Z,26.52
2022-12-20T12:21:26.178Z,29.88
2022-12-20T12:25:15.467Z,32.75
2022-12-20T12:28:29.443Z,27.48
2022-12-20T12:31:11.238Z,28.60
2022-12-20T12:35:01.135Z,25.60
2022-12-20T12:46:31.758Z,26.33
2022-12-20T12:50:08.219Z,27.40
2022-12-20T12:52:50.974Z,26.42
2022-12-20T12:56:42.058Z,26.45
2022-12-20T12:59:26.370Z,26.48
2022-12-20T13:02:26.804Z,28.33
2022-12-20T13:05:22.334Z,25.45
2022-12-20T13:08:05.767Z,22.13
2022-12-20T13:10:35.218Z,24.15
2022-12-20T13:13:22.945Z,24.45
2022-12-20T13:17:10.060Z,23.50
2022-12-20T13:20:33.940Z,23.42
2022-12-20T13:26:56.404Z,25.40
2022-12-20T13:29:38.680Z,30.50
2022-12-20T13:33:15.383Z,27.42
2022-12-20T13:39:53.564Z,26.48
2022-12-20T13:43:25.480Z,25.30
2022-12-20T13:46:49.691Z,26.88
2022-12-20T13:49:53.773Z,23.33
2022-12-20T13:52:38.163Z,24.92
2022-12-20T13:55:19.431Z,23.45
2022-12-20T14:00:07.981Z,21.05
2022-12-20T14:01:45.949Z,21.60
2022-12-20T14:04:54.062Z,19.52
2022-12-20T14:07:41.906Z,23.38
2022-12-20T14:10:59.536Z,20.67
2022-12-20T14:14:07.334Z,20.15
2022-12-20T14:16:42.162Z,23.38
2022-12-20T14:19:21.168Z,21.58
2022-12-20T14:22:05.570Z,20.25
2022-12-20T14:24:33.699Z,19.73
2022-12-20T14:27:00.759Z,23.95
2022-12-20T14:29:31.266Z,21.38
2022-12-20T14:32:00.483Z,23.52
2022-12-20T14:34:38.104Z,28.33
2022-12-20T14:37:31.674Z,24.10
2022-12-20T14:40:17.981Z,22.55
2022-12-20T14:42:45.636Z,26.30
2022-12-20T14:45:12.245Z,23.40
2022-12-20T14:47:47.994Z,24.70
2022-12-20T14:50:20.273Z,25.52
2022-12-20T14:52:46.911Z,22.95
2022-12-20T14:55:21.198Z,24.88
2022-12-20T14:57:51.782Z,27.67
2022-12-20T15:00:18.276Z,27.13
2022-12-20T15:03:00.670Z,24.65
2022-12-20T15:05:38.304Z,26.90
2022-12-20T15:08:21.560Z,25.23
2022-12-20T15:11:10.265Z,28.13
2022-12-20T15:13:36.755Z,29.75
2022-12-20T15:16:13.847Z,25.38
2022-12-20T15:18:40.786Z,27.95
2022-12-20T15:21:15.173Z,29.65
2022-12-20T15:23:48.084Z,28.25
2022-12-20T15:26:21.413Z,29.63
2022-12-20T15:28:48.583Z,26.63
2022-12-20T15:31:18.135Z,28.45
2022-12-20T15:33:45.970Z,26.45
2022-12-20T15:36:24.409Z,25.80
2022-12-20T15:41:40.500Z,27.40
2022-12-20T15:44:11.904Z,27.48
2022-12-20T15:49:32.266Z,27.13
2022-12-20T15:51:59.538Z,27.15
2022-12-20T15:54:36.392Z,26.98
2022-12-20T15:57:09.342Z,29.40
2022-12-20T16:02:25.026Z,26.15
2022-12-20T16:04:53.572Z,30.98
2022-12-20T16:07:20.595Z,32.80
2022-12-20T16:09:47.641Z,29.98
2022-12-20T16:12:18.528Z,29.25
2022-12-20T16:14:45.863Z,31.77
2022-12-20T16:17:19.945Z,29.95
2022-12-20T16:19:49.955Z,30.00
2022-12-20T16:22:19.112Z,32.50
2022-12-20T16:24:48.929Z,33.08
2022-12-20T16:27:16.069Z,31.90
2022-12-20T16:29:47.934Z,30.65
2022-12-20T16:32:16.104Z,34.10
2022-12-20T16:34:43.829Z,29.95
2022-12-20T16:37:11.967Z,29.58
2022-12-20T16:39:40.293Z,51.53
2022-12-20T16:42:20.938Z,39.13
2022-12-20T16:44:51.556Z,39.10
2022-12-20T16:47:21.698Z,34.13
2022-12-20T16:49:53.624Z,35.17
2022-12-20T16:52:37.368Z,35.97
2022-12-20T16:55:15.406Z,33.60
2022-12-20T16:57:42.146Z,40.83
2022-12-20T17:00:11.304Z,37.38
2022-12-20T17:02:38.124Z,40.33
2022-12-20T17:05:05.670Z,38.85
2022-12-20T17:07:42.776Z,41.97
2022-12-20T17:10:11.759Z,59.95
2022-12-20T17:12:44.266Z,39.30
2022-12-20T17:15:33.705Z,35.97
2022-12-20T17:18:02.777Z,39.83
2022-12-20T17:20:36.818Z,47.67
2022-12-20T17:23:04.146Z,42.00
2022-12-20T17:25:35.816Z,34.47
2022-12-20T17:28:09.375Z,48.40
2022-12-20T17:30:45.062Z,38.53
2022-12-20T17:33:15.471Z,51.53
2022-12-20T17:35:48.075Z,36.15
2022-12-20T17:38:15.049Z,37.15
2022-12-20T17:40:46.561Z,37.20
2022-12-20T17:43:16.905Z,34.92
2022-12-20T17:45:43.833Z,36.58
2022-12-20T17:48:11.471Z,44.33
2022-12-20T17:50:40.786Z,40.78
2022-12-20T17:53:10.073Z,44.08
2022-12-20T17:55:38.276Z,46.08
2022-12-20T17:58:05.992Z,56.90
2022-12-20T18:00:38.844Z,57.47
2022-12-20T18:03:07.012Z,51.75
2022-12-20T18:05:34.278Z,42.53
2022-12-20T18:08:09.907Z,41.33
2022-12-20T18:10:40.058Z,42.15
2022-12-20T18:13:06.992Z,40.58
2022-12-20T18:15:40.792Z,40.22
2022-12-20T18:18:23.032Z,52.05
2022-12-20T18:21:10.770Z,44.70
2022-12-20T18:23:54.146Z,43.53
2022-12-20T18:26:33.539Z,40.53
2022-12-20T18:29:01.946Z,45.58
2022-12-20T18:31:34.651Z,58.67
2022-12-20T18:34:09.648Z,40.92
2022-12-20T18:36:40.136Z,45.63
2022-12-20T18:39:08.377Z,41.15
2022-12-20T18:41:36.042Z,42.25
2022-12-20T18:44:05.129Z,41.30
2022-12-20T18:46:33.570Z,37.75
2022-12-20T18:49:10.346Z,43.35
2022-12-20T18:51:45.042Z,36.17
2022-12-20T18:54:26.925Z,44.13
2022-12-20T18:57:07.675Z,43.63
2022-12-20T18:59:52.019Z,38.72
2022-12-20T19:02:18.960Z,54.53
2022-12-20T19:04:45.876Z,54.08
2022-12-20T19:07:16.280Z,51.25
2022-12-20T19:09:43.061Z,41.63
2022-12-20T19:12:14.039Z,37.25
2022-12-20T19:14:50.265Z,39.53
2022-12-20T19:17:21.247Z,39.75
2022-12-20T19:19:53.195Z,37.53
2022-12-20T19:22:20.099Z,40.90
2022-12-20T19:24:46.720Z,34.35
2022-12-20T19:27:15.324Z,37.67
2022-12-20T19:29:42.540Z,39.17
2022-12-20T19:32:15.327Z,39.10
2022-12-20T19:34:45.808Z,36.27
2022-12-20T19:37:14.548Z,34.53
2022-12-20T19:39:52.074Z,32.67
2022-12-20T19:46:06.217Z,34.42
2022-12-20T19:48:49.772Z,34.80
2022-12-20T19:51:39.899Z,38.40
2022-12-20T19:54:55.471Z,33.38
2022-12-20T19:57:28.425Z,36.92
2022-12-20T20:00:06.915Z,35.90
2022-12-20T20:05:47.939Z,42.00
2022-12-20T20:08:15.540Z,42.40
2022-12-20T20:10:42.805Z,38.60
2022-12-20T20:13:09.787Z,40.42
2022-12-20T20:15:39.630Z,39.08
2022-12-20T20:18:06.298Z,35.83
2022-12-20T20:20:34.917Z,39.38
2022-12-20T20:23:05.855Z,48.50
2022-12-20T20:28:03.711Z,31.98
2022-12-20T20:30:30.570Z,43.28
2022-12-20T20:32:57.432Z,36.70
2022-12-20T20:35:24.115Z,35.42
2022-12-20T20:37:50.876Z,35.58
2022-12-20T20:40:20.146Z,36.25
2022-12-20T20:42:47.133Z,34.47
2022-12-20T20:45:14.127Z,35.67
2022-12-20T20:47:48.565Z,32.33
2022-12-20T20:50:18.386Z,33.65
2022-12-20T20:52:45.046Z,33.55
2022-12-20T20:55:11.599Z,35.85
2022-12-20T20:57:38.966Z,32.53
2022-12-20T21:00:07.024Z,32.15
2022-12-20T21:02:33.953Z,29.88
2022-12-20T21:05:52.591Z,34.70
2022-12-20T21:07:47.960Z,32.35
2022-12-20T21:10:15.286Z,32.08
2022-12-20T21:12:48.310Z,31.90
2022-12-20T21:15:28.119Z,32.40
2022-12-20T21:17:55.620Z,33.47
2022-12-20T21:23:13.670Z,33.95
2022-12-20T21:25:40.276Z,34.00
2022-12-20T21:28:06.975Z,33.95
2022-12-20T21:30:33.775Z,35.88
2022-12-20T21:33:03.113Z,36.85
2022-12-20T21:35:37.191Z,37.25
2022-12-20T21:38:04.062Z,34.22
2022-12-20T21:40:30.564Z,31.65
2022-12-20T21:42:57.202Z,37.13
2022-12-20T21:45:23.884Z,32.65
2022-12-20T21:47:50.590Z,33.58
2022-12-20T21:50:17.136Z,37.75
2022-12-20T21:52:44.020Z,33.03
2022-12-20T21:55:11.051Z,34.35
2022-12-20T21:57:37.651Z,36.60
2022-12-20T22:00:10.773Z,35.53
2022-12-20T22:02:41.233Z,36.95
2022-12-20T22:05:08.965Z,34.60
2022-12-20T22:07:35.653Z,39.40
2022-12-20T22:10:02.165Z,32.88
2022-12-20T22:12:28.696Z,31.80
2022-12-20T22:14:55.351Z,34.95
2022-12-20T22:17:22.768Z,37.33
2022-12-20T22:19:50.439Z,34.63
2022-12-20T22:22:18.364Z,30.48
2022-12-20T22:24:44.894Z,35.30
2022-12-20T22:27:11.758Z,37.58
2022-12-20T22:29:38.555Z,32.67
2022-12-20T22:32:05.223Z,35.58
2022-12-20T22:34:31.765Z,36.78
2022-12-20T22:37:02.067Z,38.78
2022-12-20T22:39:28.928Z,35.45
2022-12-20T22:41:55.605Z,34.78
2022-12-20T22:44:22.380Z,35.90
2022-12-20T22:46:49.110Z,32.78
2022-12-20T22:49:17.773Z,35.63
2022-12-20T22:52:06.298Z,33.22
2022-12-20T22:54:36.655Z,37.25
2022-12-20T22:57:03.538Z,32.15
2022-12-20T22:59:30.124Z,33.15
2022-12-20T23:01:56.913Z,35.95
2022-12-20T23:04:23.658Z,38.40
2022-12-20T23:06:53.392Z,33.33
2022-12-20T23:09:20.098Z,38.45
2022-12-20T23:12:05.113Z,38.47
2022-12-20T23:14:50.119Z,41.53
2022-12-20T23:17:17.413Z,34.83
2022-12-20T23:20:02.657Z,36.35
2022-12-20T23:22:39.301Z,39.38
2022-12-20T23:25:06.654Z,39.00
2022-12-20T23:27:33.853Z,39.13
2022-12-20T23:30:00.668Z,39.20
2022-12-20T23:32:27.440Z,42.17
2022-12-20T23:34:54.208Z,37.30
2022-12-20T23:37:21.230Z,38.25
2022-12-20T23:39:47.911Z,39.00
2022-12-20T23:42:14.940Z,37.35
2022-12-20T23:44:45.019Z,38.67
2022-12-20T23:47:18.807Z,37.58
2022-12-20T23:49:46.227Z,38.55
2022-12-20T23:52:13.259Z,37.28
2022-12-20T23:54:41.107Z,37.85
2022-12-20T23:57:12.419Z,41.05
2022-12-20T23:59:39.128Z,39.13
